सभी
Smithton Airport (Smithton, Tasmania) SIO मौसम
|
Smithton, Tasmania (SIO / YSMI)
स्वच्छ आकाश
हल्की हवाएं |
|
13 °C |
There is no TAF data available at SIO or any nearby airports.
Recent SIO METAR history
| Date | Time (AEST) | Flight Rules | Wind Dir. | Speed | Type | Height AGL (ft) | Visibility | Temp (°C) | Temp (°F) | Dew Point (°C) | Dew Point (°F) | Rel. Humid. | Pressure | Density Altitude | Remarks |
|---|---|---|---|---|---|---|---|---|---|---|---|---|---|---|---|
| 06-मई | 01:00 | n/a | 300° | 5 kt | Missing | 13° | 55° | 12° | 53° | 94% | 1017 mb | -321 ft | |||
| 06-मई | 00:00 | n/a | 300° | 8 kt | Missing | 13° | 55° | 12° | 53° | 94% | 1017 mb | -321 ft | |||
| 05-मई | 23:00 | n/a | 310° | 7 kt | Missing | 12° | 53° | 11° | 51° | 94% | 1018 mb | -471 ft | |||
| 05-मई | 22:00 | n/a | 310° | 7 kt | Missing | 13° | 55° | 12° | 53° | 94% | 1018 mb | -351 ft | |||
| 05-मई | 21:00 | n/a | 310° | 5 kt | Missing | 12° | 53° | 11° | 51° | 94% | 1018 mb | -471 ft | |||
| 05-मई | 20:00 | n/a | Calm | Missing | 11° | 51° | 10° | 50° | 94% | 1019 mb | -620 ft | ||||
| 05-मई | 19:00 | n/a | Calm | Missing | 10° | 50° | 9° | 48° | 93% | 1018 mb | -711 ft | ||||
| 05-मई | 18:00 | n/a | 280° | 5 kt | Missing | 10° | 50° | 8° | 46° | 87% | 1018 mb | -711 ft | |||
| 05-मई | 17:00 | n/a | 250° | 8 kt | Missing | 12° | 53° | 10° | 50° | 88% | 1017 mb | -441 ft | |||
| 05-मई | 16:00 | n/a | 250° | 11 kt | Missing | 14° | 57° | 10° | 50° | 77% | 1017 mb | -201 ft | |||
| 05-मई | 15:00 | n/a | 250° | 10 kt | Missing | 15° | 59° | 11° | 51° | 77% | 1016 mb | -51 ft | |||
| 05-मई | 14:00 | n/a | 250° | 14 kt | Missing | 15° | 59° | 10° | 50° | 72% | 1016 mb | -51 ft | |||
| 05-मई | 13:00 | n/a | 240° | 15 kt | Missing | 14° | 57° | 10° | 50° | 77% | 1016 mb | -171 ft | |||
| 05-मई | 12:00 | n/a | 230° | 12 kt | Missing | 14° | 57° | 10° | 50° | 77% | 1016 mb | -171 ft | |||
| 05-मई | 11:00 | n/a | 230° | 15 kt | Missing | 14° | 57° | 12° | 53° | 88% | 1015 mb | -142 ft | |||
| 05-मई | 10:00 | n/a | 230° | 13 kt | Missing | 13° | 55° | 12° | 53° | 94% | 1015 mb | -262 ft | |||
| 05-मई | 09:00 | n/a | 230° | 11 kt | Missing | 13° | 55° | 12° | 53° | 94% | 1014 mb | -232 ft | |||
| 05-मई | 08:00 | n/a | 240° | 9 kt | Missing | 12° | 53° | 10° | 50° | 88% | 1013 mb | -323 ft | |||
| 05-मई | 07:00 | n/a | 230° | 10 kt | Missing | 11° | 51° | 10° | 50° | 94% | 1012 mb | -413 ft | |||
| 05-मई | 06:00 | n/a | 240° | 11 kt | Missing | 12° | 53° | 12° | 53° | 100% | 1011 mb | -264 ft | |||
| 05-मई | 05:00 | n/a | 230° | 11 kt | Missing | 13° | 55° | 12° | 53° | 94% | 1010 mb | -114 ft | |||
| 05-मई | 04:00 | n/a | 220° | 12 kt | Missing | 13° | 55° | 12° | 53° | 94% | 1009 mb | -85 ft | |||
| 05-मई | 03:00 | n/a | 220° | 10 kt | Missing | 12° | 53° | 12° | 53° | 100% | 1008 mb | -175 ft | |||
| 05-मई | 02:00 | n/a | 210° | 7 kt | Missing | 11° | 51° | 10° | 50° | 94% | 1007 mb | -266 ft |
लॉगिन
| Your browser is unsupported. अपना ब्राऊजर अपग्रेड करें |
